Time;durP1;ratioP1;P1;durP2;ratioP2;P2;SDS_P1;SDS_P2;PMS_P1;PMS_P2;Temp;Humidity;BMP_temperature;BMP_pressure;BME280_temperature;BME280_humidity;BME280_pressure;Samples;Min_cycle;Max_cycle;Signal;HPM_P1;HPM_P2
2022/09/26 00:03:24;;;;;;;1.15;0.60;;;21.00;50.70;;;;;;20723314;28;20038;-74
2022/09/26 00:13:25;;;;;;;0.85;0.50;;;21.00;50.70;;;;;;20747315;28;20030;-76
2022/09/26 00:23:25;;;;;;;1.45;0.50;;;20.90;50.60;;;;;;20737285;28;20108;-75
2022/09/26 00:33:26;;;;;;;1.23;0.87;;;20.90;50.60;;;;;;20720692;28;20489;-76
2022/09/26 00:43:34;;;;;;;1.45;0.68;;;20.90;50.60;;;;;;20735743;28;20108;-78
2022/09/26 00:53:37;;;;;;;2.58;0.60;;;20.90;50.60;;;;;;20737213;28;20369;-77
2022/09/26 01:03:38;;;;;;;1.67;0.60;;;20.80;50.60;;;;;;20734139;28;20052;-75
2022/09/26 01:13:39;;;;;;;1.48;0.50;;;20.80;50.60;;;;;;20725002;28;20392;-75
2022/09/26 01:24:33;;;;;;;2.22;0.85;;;20.80;50.70;;;;;;20732953;28;20038;-74
2022/09/26 01:35:17;;;;;;;1.00;0.77;;;20.80;50.90;;;;;;20631013;28;20046;-74
2022/09/26 01:45:20;;;;;;;2.05;0.70;;;20.70;50.90;;;;;;21021991;23;20596;-75
2022/09/26 01:55:29;;;;;;;1.20;0.52;;;20.70;51.00;;;;;;20747509;28;20080;-76
2022/09/26 02:05:32;;;;;;;0.77;0.70;;;20.70;51.10;;;;;;20738432;28;20042;-74
2022/09/26 02:15:33;;;;;;;1.23;0.65;;;20.60;51.10;;;;;;20729973;28;20103;-74
2022/09/26 02:25:34;;;;;;;1.17;0.63;;;20.60;51.20;;;;;;20746264;28;20046;-74
2022/09/26 02:35:55;;;;;;;1.20;0.63;;;20.60;51.30;;;;;;20729721;28;20076;-75
2022/09/26 02:46:01;;;;;;;0.70;0.68;;;20.60;51.40;;;;;;20748077;28;20140;-74
2022/09/26 02:56:08;;;;;;;;;;;20.50;51.40;;;;;;20718814;28;20506;-75
2022/09/26 03:06:11;;;;;;;0.52;0.43;;;20.50;51.50;;;;;;20748641;28;20567;-74
2022/09/26 03:16:13;;;;;;;0.82;0.60;;;20.40;51.50;;;;;;20743810;28;20551;-74
2022/09/26 03:26:16;;;;;;;1.17;0.50;;;20.40;51.50;;;;;;20721893;28;20053;-75
2022/09/26 03:36:27;;;;;;;2.47;0.65;;;20.40;51.60;;;;;;20728227;28;20056;-75
2022/09/26 03:46:27;;;;;;;1.52;1.10;;;20.40;51.70;;;;;;20757155;28;20034;-75
2022/09/26 03:56:29;;;;;;;1.23;0.70;;;20.40;51.80;;;;;;20741797;28;20030;-74
2022/09/26 04:06:29;;;;;;;0.93;0.50;;;20.30;51.80;;;;;;20777828;28;20042;-74
2022/09/26 04:16:34;;;;;;;1.58;0.50;;;20.30;51.90;;;;;;20719701;28;20029;-77
2022/09/26 04:26:44;;;;;;;2.00;1.08;;;20.30;52.00;;;;;;20722408;28;20046;-73
2022/09/26 04:36:44;;;;;;;2.50;0.60;;;20.30;52.10;;;;;;20718971;28;20123;-76
2022/09/26 04:46:46;;;;;;;2.00;0.68;;;20.30;52.10;;;;;;20734221;28;20040;-75
2022/09/26 04:56:48;;;;;;;1.42;0.70;;;20.20;52.20;;;;;;20710008;28;20121;-80
2022/09/26 05:06:48;;;;;;;1.17;0.60;;;20.20;52.20;;;;;;20713191;28;20539;-73
2022/09/26 05:17:00;;;;;;;0.95;0.40;;;20.20;52.20;;;;;;20735022;28;20365;-80
2022/09/26 05:27:01;;;;;;;1.02;0.63;;;20.10;52.20;;;;;;20733654;28;20037;-78
2022/09/26 05:37:02;;;;;;;1.05;0.57;;;20.10;52.30;;;;;;20746652;28;20088;-76
2022/09/26 05:47:03;;;;;;;0.95;0.43;;;20.10;52.40;;;;;;20743018;28;20045;-77
2022/09/26 05:57:03;;;;;;;0.93;0.40;;;20.10;52.40;;;;;;20722963;28;20396;-78
2022/09/26 06:07:14;;;;;;;1.25;0.55;;;20.00;52.50;;;;;;20714443;28;20662;-76
2022/09/26 06:17:15;;;;;;;1.85;0.50;;;20.00;52.60;;;;;;20741896;28;20037;-75
2022/09/26 06:27:17;;;;;;;1.05;0.80;;;20.00;52.50;;;;;;20739807;28;20480;-79
2022/09/26 06:37:17;;;;;;;1.17;0.60;;;20.00;53.20;;;;;;20707520;28;20099;-77
2022/09/26 06:47:18;;;;;;;0.88;0.32;;;20.00;52.60;;;;;;20721918;28;20029;-76
2022/09/26 06:57:19;;;;;;;0.57;0.40;;;20.00;52.70;;;;;;20723312;28;20030;-75
2022/09/26 07:07:20;;;;;;;0.73;0.40;;;19.90;52.70;;;;;;20740595;28;20037;-76
2022/09/26 07:17:21;;;;;;;0.30;0.30;;;19.90;52.80;;;;;;20721107;28;20125;-75
2022/09/26 07:27:41;;;;;;;2.25;0.60;;;19.90;52.80;;;;;;20721040;28;20030;-76
2022/09/26 07:37:45;;;;;;;0.85;0.50;;;19.90;52.90;;;;;;20636413;28;20035;-75
2022/09/26 07:58:45;;;;;;;1.03;0.50;;;19.90;52.90;;;;;;20748858;28;20095;-74
2022/09/26 08:09:10;;;;;;;1.63;0.50;;;19.80;53.00;;;;;;20767373;28;20300;-75
2022/09/26 08:19:29;;;;;;;1.17;0.50;;;19.90;53.10;;;;;;20731953;28;20042;-75
2022/09/26 08:29:31;;;;;;;0.35;0.30;;;19.80;53.10;;;;;;20714747;28;20037;-75
2022/09/26 08:39:32;;;;;;;0.77;0.57;;;19.80;53.10;;;;;;20731420;28;20033;-75
2022/09/26 08:49:54;;;;;;;1.17;0.60;;;19.80;53.10;;;;;;20740242;28;20069;-75
2022/09/26 08:59:55;;;;;;;2.45;0.95;;;19.80;53.20;;;;;;20745009;28;20084;-75
2022/09/26 09:10:05;;;;;;;0.70;0.40;;;19.80;53.10;;;;;;20726707;28;20469;-75
2022/09/26 09:20:36;;;;;;;1.05;0.52;;;19.80;53.20;;;;;;20792059;28;20476;-74
2022/09/26 09:31:12;;;;;;;0.40;0.40;;;19.90;53.10;;;;;;20720277;28;20046;-75
2022/09/26 09:41:37;;;;;;;1.27;0.35;;;19.90;53.10;;;;;;20739851;28;20044;-75
2022/09/26 09:51:38;;;;;;;1.08;0.43;;;20.00;53.00;;;;;;20726081;28;20432;-75
2022/09/26 10:01:43;;;;;;;4.38;1.10;;;20.00;52.80;;;;;;20743983;28;20092;-76
2022/09/26 10:11:47;;;;;;;0.60;0.40;;;20.20;52.60;;;;;;20725545;28;20420;-72
2022/09/26 10:22:22;;;;;;;1.13;0.95;;;20.30;52.30;;;;;;20740692;28;20037;-73
2022/09/26 10:32:24;;;;;;;0.85;0.40;;;20.50;52.00;;;;;;20708904;28;20041;-71
2022/09/26 10:42:31;;;;;;;2.60;0.50;;;20.70;51.40;;;;;;20742019;28;20056;-71
2022/09/26 10:52:52;;;;;;;0.40;0.40;;;20.80;51.00;;;;;;20706171;28;20113;-72
2022/09/26 11:02:54;;;;;;;0.38;0.30;;;20.90;50.60;;;;;;20738360;28;20050;-70
2022/09/26 11:12:57;;;;;;;1.05;0.40;;;21.10;50.40;;;;;;20705767;28;20037;-70
2022/09/26 11:23:13;;;;;;;1.15;0.50;;;21.10;50.10;;;;;;20739682;28;20042;-69
2022/09/26 11:33:17;;;;;;;1.83;0.50;;;21.20;49.90;;;;;;20729233;28;20092;-71
2022/09/26 11:43:53;;;;;;;1.95;0.40;;;21.20;49.70;;;;;;20740464;28;20049;-69
2022/09/26 11:54:26;;;;;;;1.25;0.47;;;21.20;49.60;;;;;;20737515;28;20046;-70
2022/09/26 12:05:01;;;;;;;0.40;0.30;;;21.20;49.50;;;;;;20731916;28;20037;-71
2022/09/26 12:15:22;;;;;;;0.45;0.35;;;21.30;49.50;;;;;;20749665;28;20044;-71
2022/09/26 12:25:38;;;;;;;0.75;0.43;;;21.30;49.40;;;;;;20732245;28;20065;-72
2022/09/26 12:35:46;;;;;;;;;;;21.30;49.40;;;;;;20725420;28;20033;-71
2022/09/26 12:46:21;;;;;;;0.70;0.25;;;21.30;49.40;;;;;;20732843;28;20423;-71
2022/09/26 12:56:47;;;;;;;0.75;0.20;;;21.30;49.40;;;;;;20715828;28;20387;-72
2022/09/26 13:06:57;;;;;;;0.53;0.30;;;21.30;49.40;;;;;;20726226;28;20065;-73
2022/09/26 13:17:20;;;;;;;1.05;0.45;;;21.30;49.40;;;;;;20741129;28;20034;-71
2022/09/26 13:27:26;;;;;;;0.90;0.50;;;21.30;49.40;;;;;;20729615;28;20432;-70
2022/09/26 13:37:52;;;;;;;0.20;0.20;;;21.20;49.30;;;;;;20742641;28;20116;-70
2022/09/26 13:47:59;;;;;;;0.88;0.35;;;21.20;49.30;;;;;;20700237;28;20049;-70
2022/09/26 13:58:07;;;;;;;0.32;0.32;;;21.20;49.40;;;;;;20704629;28;20413;-69
2022/09/26 14:18:53;;;;;;;2.65;0.32;;;21.20;49.50;;;;;;20737198;28;20042;-69
2022/09/26 14:28:55;;;;;;;0.82;0.52;;;21.20;49.60;;;;;;20738570;28;20140;-70
2022/09/26 14:38:56;;;;;;;1.05;0.63;;;21.20;49.70;;;;;;20723840;28;20468;-71
2022/09/26 14:49:06;;;;;;;0.68;0.50;;;21.10;49.70;;;;;;20689798;28;20049;-73
2022/09/26 14:59:33;;;;;;;0.93;0.40;;;21.20;49.80;;;;;;20721198;28;20487;-71
2022/09/26 15:09:41;;;;;;;;;;;21.10;49.80;;;;;;20731058;28;20034;-74
2022/09/26 15:19:49;;;;;;;0.80;0.55;;;21.10;49.90;;;;;;20729689;28;19921;-75
2022/09/26 15:29:50;;;;;;;0.65;0.47;;;21.10;50.00;;;;;;20713526;28;20416;-74
2022/09/26 15:39:51;;;;;;;7.78;0.88;;;21.10;50.10;;;;;;20734957;28;20116;-73
2022/09/26 15:50:01;;;;;;;22.80;2.65;;;21.00;50.20;;;;;;20734936;28;20038;-73
2022/09/26 16:00:02;;;;;;;20.77;2.38;;;21.10;50.30;;;;;;20704428;28;20033;-73
2022/09/26 16:10:05;;;;;;;7.30;2.22;;;21.10;50.40;;;;;;20731928;28;20049;-75
2022/09/26 16:20:08;;;;;;;10.60;2.33;;;21.00;50.30;;;;;;20734692;28;20029;-70
2022/09/26 16:30:24;;;;;;;3.83;1.52;;;21.00;50.40;;;;;;20750272;28;20037;-71
2022/09/26 16:40:28;;;;;;;2.70;1.60;;;21.00;50.50;;;;;;20733187;28;20050;-71
2022/09/26 16:50:32;;;;;;;3.25;1.80;;;21.00;50.60;;;;;;20728259;28;20153;-72
2022/09/26 17:11:01;;;;;;;5.47;2.08;;;20.80;50.70;;;;;;20723926;28;20401;-70
2022/09/26 17:21:01;;;;;;;6.32;1.70;;;20.90;50.70;;;;;;20713054;28;20396;-71
2022/09/26 17:31:06;;;;;;;3.33;1.50;;;20.80;50.70;;;;;;20692303;28;20041;-72
2022/09/26 17:41:11;;;;;;;5.05;1.08;;;20.80;50.80;;;;;;20712426;28;20046;-70
2022/09/26 17:51:12;;;;;;;3.20;1.23;;;20.80;50.90;;;;;;20727835;28;20133;-71
2022/09/26 18:01:22;;;;;;;3.17;1.17;;;20.80;50.90;;;;;;20723202;28;20396;-72
2022/09/26 18:11:23;;;;;;;3.53;1.70;;;20.70;50.90;;;;;;20723587;28;20050;-71
2022/09/26 18:21:25;;;;;;;3.47;1.02;;;20.70;50.90;;;;;;20718153;28;20096;-72
2022/09/26 18:31:30;;;;;;;2.03;1.00;;;20.70;51.00;;;;;;20814298;28;20479;-74
2022/09/26 18:41:34;;;;;;;2.83;1.58;;;20.70;51.00;;;;;;20697158;28;20037;-72
2022/09/26 18:51:36;;;;;;;3.20;1.25;;;20.70;51.10;;;;;;20723322;28;20046;-72
2022/09/26 19:01:39;;;;;;;3.30;1.65;;;20.70;51.10;;;;;;20753874;28;20061;-72
2022/09/26 19:11:41;;;;;;;2.13;1.13;;;20.70;51.10;;;;;;20705848;28;20061;-72
2022/09/26 19:21:45;;;;;;;5.35;1.50;;;20.60;51.10;;;;;;20678109;28;20121;-71
2022/09/26 19:31:48;;;;;;;1.77;0.77;;;20.60;51.10;;;;;;20677436;28;20483;-71
2022/09/26 19:41:48;;;;;;;3.35;1.15;;;20.60;51.30;;;;;;20735265;28;20034;-70
2022/09/26 19:51:49;;;;;;;2.73;0.97;;;20.60;51.30;;;;;;20819511;28;20038;-74
2022/09/26 20:01:49;;;;;;;1.48;0.85;;;20.50;51.30;;;;;;20758737;28;20295;-74
2022/09/26 20:11:50;;;;;;;1.33;0.80;;;20.50;51.30;;;;;;20736857;28;20037;-72
2022/09/26 20:21:51;;;;;;;1.27;0.82;;;20.50;51.40;;;;;;20721450;28;20041;-71
2022/09/26 20:31:51;;;;;;;3.42;0.90;;;20.50;51.40;;;;;;20719740;28;20069;-71
2022/09/26 20:41:52;;;;;;;2.30;0.88;;;20.50;51.50;;;;;;20735581;28;20045;-72
2022/09/26 20:51:52;;;;;;;2.15;1.02;;;20.50;51.50;;;;;;20702939;28;20129;-72
2022/09/26 21:01:53;;;;;;;0.98;0.50;;;20.40;51.50;;;;;;20733279;28;20026;-72
2022/09/26 21:11:54;;;;;;;1.63;1.02;;;20.40;51.60;;;;;;20716572;28;20042;-71
2022/09/26 21:21:55;;;;;;;2.88;0.73;;;20.40;51.60;;;;;;20731792;28;20049;-70
2022/09/26 21:32:04;;;;;;;1.33;0.70;;;20.30;51.60;;;;;;20716619;28;20488;-73
2022/09/26 21:42:05;;;;;;;1.58;0.85;;;20.40;51.70;;;;;;20714647;28;20041;-72
2022/09/26 21:52:09;;;;;;;1.48;0.65;;;20.30;51.70;;;;;;20729717;28;20103;-71
2022/09/26 22:02:10;;;;;;;0.95;0.55;;;20.30;51.80;;;;;;20711875;28;20037;-71
2022/09/26 22:12:10;;;;;;;1.05;0.50;;;20.30;51.80;;;;;;20727394;28;20191;-71
2022/09/26 22:22:11;;;;;;;2.08;0.55;;;20.30;51.90;;;;;;20728223;28;20124;-79
2022/09/26 22:32:12;;;;;;;1.42;0.63;;;20.20;51.90;;;;;;20711114;28;20042;-74
2022/09/26 22:42:12;;;;;;;1.10;0.55;;;20.20;52.00;;;;;;20740523;28;20038;-71
2022/09/26 22:52:13;;;;;;;1.10;0.60;;;20.20;52.10;;;;;;20742329;28;20038;-74
2022/09/26 23:02:14;;;;;;;1.02;0.60;;;20.20;52.10;;;;;;20725167;28;20089;-71
2022/09/26 23:12:14;;;;;;;1.10;0.57;;;20.20;52.20;;;;;;20731791;28;20041;-73
2022/09/26 23:22:15;;;;;;;0.85;0.50;;;20.20;52.30;;;;;;20741472;28;20431;-74
2022/09/26 23:32:15;;;;;;;1.45;0.60;;;20.20;52.30;;;;;;20724541;28;20041;-71
2022/09/26 23:42:16;;;;;;;0.50;0.38;;;20.20;52.40;;;;;;20732360;28;20466;-71
2022/09/26 23:52:17;;;;;;;1.13;0.63;;;20.20;52.40;;;;;;20738678;28;20049;-76
